Dryden, Ontario

7:49 AM CST on December 16, 2017 (GMT -0600)
Dryden Airport | | Change Station

Elev 1352 ft 49.83 °N, 92.74 °W | Updated 49 minutes ago

Overcast
Overcast
-11 °F
Feels Like -23 °F
N
5
Wind Variable Wind from ENE

Today
High -- | Low -- °F
--% Chance of Precip.
Yesterday
High -- | Low -- °F
Precip. -- in
Pressure 30.06 in
Visibility 9.0 miles
Clouds Overcast 12000 ft
Windchill -23 °F
Dew Point -17 °F
Humidity 77%
Rainfall 0.00 in
Snow Depth Not available.
8:03 AM 4:11 PM
Waning Crescent, 3% visible
METAR CYHD 161300Z AUTO 06004KT 9SM OVC120 M24/M27 A2990 RMK SLP180
Pressure 30.06 in
Visibility 9.0 miles
Clouds Overcast 12000 ft
Windchill -23 °F
Dew Point -17 °F
Humidity 77%
Rainfall 0.00 in
Snow Depth Not available.
8:03 AM 4:11 PM
Waning Crescent, 3% visible
METAR CYHD 161300Z AUTO 06004KT 9SM OVC120 M24/M27 A2990 RMK SLP180

Get Severe Weather Alerts

Thanks for signing up!

Be on the lookout for a verification email in your inbox.

You'll start receiving the daily forecast at 6 AM.

×

10-Day Weather Forecast

Almanac

Astronomy

Dec. 16, 2017 Rise Set
Actual Time
Civil Twilight
Nautical Twilight
Astronomical Twilight
Moon
Length of Visible Light
Length of Day
Tomorrow will be .
, % of the Moon is Illuminated

Today's Extremes

Country Highs Country Lows

Community

WunderPhotos

Category 6

Welcome to Category 6. This is the collective home for Weather Underground's featured writeups by Dr. Jeff Masters (right), Bob Henson (left), Chris Burt, and other regular contributors.

Nearby

Air Quality

  Air Quality AQ Index Pollutant
Not available.

Snow Depth

Station Depth Elevation

Earthquake Activity

City Distance Mag. Time & Date
Minimum magnitude displayed is 2.5.

Coastal Water Temperatures

Place Temperature

Stations

Nearby Weather Stations

Station Location Temp. Windchill Dew Point Humidity Wind Precip. Elev Updated Type
                   

Watches & Warnings

There are currently no watches in effect.